Newlin, Pennsylvania
Current Conditions -  °F | °C
As of 4:35 PM on Monday 24 Nov 2014 (Local Time) from KHZL Reporting Station
Broken Clouds Broken Clouds  
Wind Chill: 61°   Ceiling: 2700
Heat Index: 61°   Visibility: 10mi
Dew Point: 52°   Wind: 13mph
Humidity: 72%   Direction: 170°S
Pressure: 29.62"   Gusts: 22mph
Location:  40.8983°N, 76.4239°W
Report Text: KHZL 242135Z AUTO 17011G19KT 130V200 10SM BKN027 16/11 A2962 RMK AO2
Loading
Personal Weather Stations






























Interactive Weather Map New forecast layout! Learn more

10-Day Weather Forecast

Advertisements
Track Severe Weather on mobile